Time;durP1;ratioP1;P1;durP2;ratioP2;P2;SDS_P1;SDS_P2;PMS_P1;PMS_P2;Temp;Humidity;BMP_temperature;BMP_pressure;BME280_temperature;BME280_humidity;BME280_pressure;Samples;Min_cycle;Max_cycle;Signal;HPM_P1;HPM_P2
2022/11/17 00:02:12;;;;;;;22.38;13.18;;;307.60;2201.60;;;;;;4899671;29;20044;-59
2022/11/17 00:04:37;;;;;;;22.15;13.02;;;307.30;2304.00;;;;;;4898796;29;20031;-59
2022/11/17 00:07:03;;;;;;;22.58;12.52;;;307.20;2304.00;;;;;;4928565;28;20037;-59
2022/11/17 00:09:29;;;;;;;24.13;13.00;;;307.20;2304.00;;;;;;4980017;28;20098;-59
2022/11/17 00:14:40;;;;;;;20.50;12.13;;;282.40;2278.40;;;;;;4981704;28;20081;-59
2022/11/17 00:17:07;;;;;;;18.20;11.50;;;282.40;2278.40;;;;;;4981901;28;20089;-59
2022/11/17 00:22:16;;;;;;;19.65;11.65;;;282.40;2278.40;;;;;;4977342;28;20113;-56
2022/11/17 00:24:42;;;;;;;18.23;10.75;;;282.40;2278.40;;;;;;4980149;28;20034;-59
2022/11/17 00:27:08;;;;;;;18.75;11.00;;;282.40;2278.40;;;;;;4975225;28;20039;-59
2022/11/17 00:29:33;;;;;;;21.70;11.90;;;282.40;2278.40;;;;;;4975076;28;20038;-55
2022/11/17 00:34:43;;;;;;;16.85;11.15;;;282.50;2278.40;;;;;;4972241;28;20076;-60
2022/11/17 00:37:11;;;;;;;18.23;10.65;;;282.40;2278.40;;;;;;4972017;28;20504;-59
2022/11/17 00:39:37;;;;;;;18.95;11.20;;;;;;;;;;4971843;28;20031;-58
2022/11/17 00:42:03;;;;;;;20.35;11.70;;;;;;;;;;4973316;28;20404;-57
2022/11/17 00:44:29;;;;;;;20.73;12.10;;;;;;;;;;4991552;28;20030;-59
2022/11/17 00:46:55;;;;;;;24.67;13.32;;;;;;;;;;4982960;28;20042;-58
2022/11/17 00:49:25;;;;;;;22.48;12.55;;;;;;;;;;4972248;28;20090;-58
2022/11/17 00:51:52;;;;;;;26.50;13.85;;;;;;;;;;4971835;28;20034;-58
2022/11/17 00:54:18;;;;;;;31.42;16.27;;;;;;;;;;4971141;28;20496;-59
2022/11/17 00:56:43;;;;;;;27.05;14.27;;;307.30;2304.00;;;;;;4971312;28;20051;-60
2022/11/17 00:59:09;;;;;;;26.70;14.18;;;282.40;2278.40;;;;;;4972003;28;20035;-59
2022/11/17 01:01:36;;;;;;;25.80;13.93;;;282.40;2278.40;;;;;;4971760;28;20093;-59
2022/11/17 01:04:03;;;;;;;27.10;15.30;;;282.30;2278.40;;;;;;4971361;28;20874;-59
2022/11/17 01:06:32;;;;;;;27.15;14.90;;;282.20;2278.40;;;;;;4972874;28;20117;-59
2022/11/17 01:09:03;;;;;;;27.88;15.20;;;282.30;2278.40;;;;;;4977755;28;20059;-59
2022/11/17 01:11:29;;;;;;;27.08;15.25;;;282.30;2278.40;;;;;;4978876;28;20576;-59
2022/11/17 01:13:57;;;;;;;29.27;15.52;;;282.50;2278.40;;;;;;4974812;28;20117;-58
2022/11/17 01:16:24;;;;;;;29.92;15.32;;;282.30;2278.40;;;;;;4974751;28;20035;-59
2022/11/17 01:18:50;;;;;;;27.95;14.95;;;282.30;2278.40;;;;;;4974941;28;20062;-59
2022/11/17 01:21:19;;;;;;;28.88;14.27;;;282.20;2278.40;;;;;;4973576;28;20062;-60
2022/11/17 01:23:46;;;;;;;29.20;15.80;;;282.20;2278.40;;;;;;4975675;28;20226;-59
2022/11/17 01:26:14;;;;;;;27.25;14.10;;;282.30;2278.40;;;;;;4974156;28;20023;-59
2022/11/17 01:28:41;;;;;;;26.52;14.73;;;282.30;2278.40;;;;;;4975105;28;20031;-60
2022/11/17 01:31:16;;;;;;;24.88;14.13;;;282.30;2278.40;;;;;;4974831;28;20032;-59
2022/11/17 01:33:43;;;;;;;28.52;15.25;;;282.30;2278.40;;;;;;4974785;28;20531;-59
2022/11/17 01:36:15;;;;;;;25.67;15.20;;;282.30;2278.40;;;;;;4974226;28;20038;-58
2022/11/17 01:38:41;;;;;;;26.75;15.18;;;282.30;2278.40;;;;;;4974530;28;20054;-59
2022/11/17 01:41:22;;;;;;;29.80;15.43;;;282.30;2278.40;;;;;;4974306;28;20030;-59
2022/11/17 01:43:51;;;;;;;29.20;15.75;;;282.30;2278.40;;;;;;4974706;28;20052;-59
2022/11/17 01:46:24;;;;;;;32.38;16.17;;;282.30;2278.40;;;;;;4974096;28;20019;-59
2022/11/17 01:48:51;;;;;;;30.35;16.15;;;282.30;2278.40;;;;;;4957375;28;20070;-59
2022/11/17 01:51:17;;;;;;;32.08;16.90;;;282.20;2278.40;;;;;;4988183;28;20820;-58
2022/11/17 01:53:46;;;;;;;34.67;17.45;;;282.20;2278.40;;;;;;4974622;28;20031;-59
2022/11/17 01:56:21;;;;;;;31.90;16.88;;;282.10;2278.40;;;;;;4974016;28;20141;-59
2022/11/17 01:58:53;;;;;;;33.13;17.58;;;282.10;2278.40;;;;;;4956858;28;20111;-58
2022/11/17 02:01:19;;;;;;;32.90;17.58;;;282.10;2278.40;;;;;;4974249;28;20027;-57
2022/11/17 02:03:47;;;;;;;28.88;16.25;;;282.10;2278.40;;;;;;4973927;28;20370;-59
2022/11/17 02:06:23;;;;;;;33.67;17.80;;;282.10;2278.40;;;;;;4974058;28;20027;-59
2022/11/17 02:08:52;;;;;;;36.08;18.83;;;282.20;2278.40;;;;;;4986958;28;20050;-59
2022/11/17 02:11:19;;;;;;;32.97;17.45;;;282.10;2278.40;;;;;;4972639;28;20030;-60
2022/11/17 02:13:45;;;;;;;36.85;18.17;;;282.10;2278.40;;;;;;4974205;28;20382;-59
2022/11/17 02:16:13;;;;;;;35.55;17.27;;;282.10;2278.40;;;;;;4973637;28;20031;-58
2022/11/17 02:18:40;;;;;;;36.65;18.95;;;282.10;2278.40;;;;;;4973732;28;20064;-59
2022/11/17 02:21:30;;;;;;;36.55;17.80;;;282.10;2278.40;;;;;;4977081;28;20022;-59
2022/11/17 02:24:12;;;;;;;34.28;17.25;;;282.10;2278.40;;;;;;4993397;28;20393;-59
2022/11/17 02:27:04;;;;;;;37.45;18.77;;;282.10;2278.40;;;;;;4976428;28;20026;-58
2022/11/17 02:30:08;;;;;;;34.92;18.00;;;282.00;2278.40;;;;;;4932383;29;20044;-58
2022/11/17 02:32:42;;;;;;;36.33;18.00;;;281.90;2278.40;;;;;;4872422;29;20061;-59
2022/11/17 02:35:19;;;;;;;36.45;19.25;;;281.90;2278.40;;;;;;4869536;29;20121;-55
2022/11/17 02:38:06;;;;;;;36.33;18.05;;;281.60;2278.40;;;;;;4876393;29;20037;-54
2022/11/17 02:40:43;;;;;;;45.50;20.92;;;256.80;2252.80;;;;;;4857885;29;20049;-54
2022/11/17 02:46:08;;;;;;;38.10;18.75;;;256.60;2252.80;;;;;;4876561;29;20067;-59
2022/11/17 02:48:38;;;;;;;38.30;18.50;;;256.40;2252.80;;;;;;4876402;29;20118;-58
2022/11/17 02:51:07;;;;;;;38.97;18.30;;;256.40;2252.80;;;;;;4877214;29;20047;-59
2022/11/17 02:53:34;;;;;;;36.70;18.60;;;256.20;2252.80;;;;;;4894081;29;20180;-59
2022/11/17 02:56:01;;;;;;;42.28;19.23;;;256.10;2252.80;;;;;;4883289;29;20044;-58
2022/11/17 02:58:27;;;;;;;43.92;20.33;;;256.10;2252.80;;;;;;4891308;29;20044;-57
2022/11/17 03:01:27;;;;;;;44.47;20.85;;;256.00;2252.80;;;;;;4893436;29;20399;-58
2022/11/17 03:03:56;;;;;;;46.00;21.40;;;231.20;2252.80;;;;;;4842554;29;20369;-57
2022/11/17 03:06:36;;;;;;;45.00;20.58;;;231.10;2252.80;;;;;;4876894;29;20104;-58
2022/11/17 03:09:09;;;;;;;52.70;22.55;;;231.00;2252.80;;;;;;4896727;29;20063;-60
2022/11/17 03:11:58;;;;;;;51.40;23.35;;;231.00;2252.80;;;;;;4912820;29;20036;-59
2022/11/17 03:14:36;;;;;;;54.22;23.38;;;230.90;2252.80;;;;;;4890698;29;20088;-57
2022/11/17 03:17:20;;;;;;;57.40;24.48;;;230.80;2252.80;;;;;;4912811;29;20032;-59
2022/11/17 03:19:54;;;;;;;58.40;24.20;;;230.70;2252.80;;;;;;4913664;29;20123;-59
2022/11/17 03:22:42;;;;;;;67.43;26.83;;;230.60;2252.80;;;;;;4913258;29;20569;-58
2022/11/17 03:25:15;;;;;;;63.25;25.75;;;230.60;2252.80;;;;;;4913459;29;20259;-59
2022/11/17 03:27:44;;;;;;;57.90;24.98;;;;;;;;;;4912739;29;20534;-58
2022/11/17 03:30:11;;;;;;;55.85;24.25;;;;;;;;;;4912898;29;20032;-58
2022/11/17 03:32:42;;;;;;;54.85;23.95;;;;;;;;;;4912877;29;20092;-59
2022/11/17 03:35:10;;;;;;;56.75;23.80;;;;;;;;;;4913352;29;20087;-59
2022/11/17 03:37:39;;;;;;;53.58;22.73;;;;;;;;;;4912434;29;20223;-58
2022/11/17 03:40:07;;;;;;;61.00;25.85;;;;;;;;;;4959276;28;20106;-59
2022/11/17 03:42:34;;;;;;;62.55;26.00;;;;;;;;;;4972569;28;20035;-59
2022/11/17 03:45:09;;;;;;;53.42;23.88;;;;;;;;;;4976623;28;20023;-58
2022/11/17 03:47:35;;;;;;;54.70;24.00;;;;;;;;;;4976549;28;20105;-57
2022/11/17 03:50:18;;;;;;;53.70;24.08;;;;;;;;;;4976956;28;20059;-53
2022/11/17 03:52:44;;;;;;;53.35;24.58;;;;;;;;;;4976824;28;20046;-59
2022/11/17 03:55:10;;;;;;;52.83;23.67;;;;;;;;;;4976620;28;20023;-58
2022/11/17 03:57:42;;;;;;;58.53;23.77;;;;;;;;;;4976341;28;20027;-58
2022/11/17 04:00:10;;;;;;;58.90;25.20;;;;;;;;;;4976697;28;20034;-60
2022/11/17 04:02:36;;;;;;;61.17;25.65;;;;;;;;;;4975774;28;20465;-58
2022/11/17 04:05:05;;;;;;;61.58;25.27;;;;;;;;;;4976346;28;20491;-59
2022/11/17 04:07:41;;;;;;;60.40;26.15;;;;;;;;;;4976513;28;20027;-59
2022/11/17 04:10:09;;;;;;;64.32;26.70;;;;;;;;;;4968770;28;20031;-59
2022/11/17 04:18:04;;;;;;;62.55;26.42;;;;;;;;;;4976359;28;20093;-59
2022/11/17 04:20:34;;;;;;;60.15;25.63;;;;;;;;;;4976179;28;20027;-59
2022/11/17 04:23:06;;;;;;;60.72;26.38;;;;;;;;;;4975626;28;20077;-59
2022/11/17 04:28:36;;;;;;;66.43;27.08;;;;;;;;;;4973155;28;20118;-59
2022/11/17 04:31:15;;;;;;;68.97;27.45;;;;;;;;;;4983949;28;20125;-53
2022/11/17 04:33:43;;;;;;;65.18;27.30;;;;;;;;;;4990548;28;20057;-53
2022/11/17 04:36:09;;;;;;;70.97;26.98;;;;;;;;;;4975996;28;20523;-53
2022/11/17 04:38:36;;;;;;;66.32;26.95;;;;;;;;;;4960975;28;20030;-53
2022/11/17 04:43:51;;;;;;;64.07;27.42;;;230.60;2252.80;;;;;;4957041;29;20158;-54
2022/11/17 04:46:18;;;;;;;65.38;27.10;;;230.60;2252.80;;;;;;4956382;29;20027;-58
2022/11/17 04:48:44;;;;;;;60.50;27.13;;;230.60;2252.80;;;;;;4972767;28;20058;-58
2022/11/17 04:51:10;;;;;;;54.63;24.92;;;230.60;2252.80;;;;;;4975494;28;20023;-58
2022/11/17 04:53:36;;;;;;;57.42;24.88;;;230.70;2252.80;;;;;;4975554;28;20165;-59
2022/11/17 04:56:03;;;;;;;55.85;24.92;;;230.60;2252.80;;;;;;4974437;28;20023;-59
2022/11/17 04:58:29;;;;;;;53.55;24.02;;;230.60;2252.80;;;;;;4975224;28;20039;-57
2022/11/17 05:00:55;;;;;;;53.55;24.13;;;230.60;2252.80;;;;;;4985986;28;20070;-59
2022/11/17 05:03:21;;;;;;;49.33;23.75;;;230.50;2252.80;;;;;;4985588;28;20453;-59
2022/11/17 05:05:49;;;;;;;49.58;24.55;;;230.50;2252.80;;;;;;4974968;28;20031;-56
2022/11/17 05:08:15;;;;;;;51.97;22.08;;;230.70;2252.80;;;;;;4975272;28;20034;-57
2022/11/17 05:13:25;;;;;;;45.58;21.73;;;230.60;2252.80;;;;;;4975328;28;20134;-59
2022/11/17 05:18:42;;;;;;;46.60;21.27;;;230.50;2252.80;;;;;;4974192;28;20038;-58
2022/11/17 05:21:10;;;;;;;48.35;21.15;;;230.60;2252.80;;;;;;4959309;28;20023;-58
2022/11/17 05:23:54;;;;;;;43.00;19.60;;;230.60;2252.80;;;;;;4974999;28;20043;-57
2022/11/17 05:26:25;;;;;;;54.90;25.15;;;230.70;2252.80;;;;;;4974529;28;20026;-58
2022/11/17 05:28:51;;;;;;;44.75;22.23;;;230.70;2252.80;;;;;;4975436;28;20126;-59
2022/11/17 05:31:17;;;;;;;48.83;22.35;;;230.70;2252.80;;;;;;4975556;28;20027;-59
2022/11/17 05:33:43;;;;;;;50.40;23.55;;;230.70;2252.80;;;;;;4974483;28;20035;-59
2022/11/17 05:36:09;;;;;;;43.78;20.55;;;230.70;2252.80;;;;;;4974554;28;20031;-59
2022/11/17 05:38:35;;;;;;;47.47;21.88;;;230.80;2252.80;;;;;;4974791;28;20023;-59
2022/11/17 05:41:01;;;;;;;69.22;31.38;;;230.80;2252.80;;;;;;4973933;28;20037;-59
2022/11/17 05:43:27;;;;;;;52.25;24.50;;;230.80;2252.80;;;;;;4973845;28;20035;-59
2022/11/17 05:45:52;;;;;;;52.08;25.90;;;230.90;2252.80;;;;;;4973878;28;20106;-60
2022/11/17 05:48:18;;;;;;;44.13;21.70;;;230.90;2252.80;;;;;;4974894;28;20023;-59
2022/11/17 05:50:44;;;;;;;38.40;19.42;;;231.00;2252.80;;;;;;4974523;28;20480;-59
2022/11/17 05:53:10;;;;;;;54.25;26.40;;;231.00;2252.80;;;;;;4974352;28;20078;-57
2022/11/17 05:55:36;;;;;;;46.53;22.70;;;231.00;2252.80;;;;;;4988490;28;20694;-60
2022/11/17 05:58:10;;;;;;;51.72;25.20;;;231.00;2252.80;;;;;;4977601;28;20035;-58
2022/11/17 06:00:38;;;;;;;55.85;26.73;;;231.00;2252.80;;;;;;4974482;28;20031;-58
2022/11/17 06:03:22;;;;;;;42.95;21.45;;;231.00;2252.80;;;;;;4974061;28;20489;-59
2022/11/17 06:05:47;;;;;;;46.72;21.45;;;231.00;2252.80;;;;;;4973597;28;20034;-59
2022/11/17 06:08:13;;;;;;;40.08;19.95;;;231.10;2252.80;;;;;;4974168;28;20027;-59
2022/11/17 06:10:39;;;;;;;42.50;20.83;;;231.10;2252.80;;;;;;4974292;28;20065;-58
2022/11/17 06:13:05;;;;;;;68.63;33.97;;;231.00;2252.80;;;;;;4973778;28;20066;-59
2022/11/17 06:15:31;;;;;;;68.57;32.78;;;231.00;2252.80;;;;;;4973616;28;20069;-59
2022/11/17 06:18:04;;;;;;;56.15;27.38;;;231.10;2252.80;;;;;;4954641;29;20073;-58
2022/11/17 06:20:37;;;;;;;64.65;30.80;;;231.20;2252.80;;;;;;4966869;28;20122;-59
2022/11/17 06:23:06;;;;;;;71.55;33.55;;;256.00;2252.80;;;;;;4973694;28;20050;-58
2022/11/17 06:25:34;;;;;;;75.57;35.35;;;256.10;2252.80;;;;;;4977173;28;20030;-59
2022/11/17 06:28:01;;;;;;;42.47;21.08;;;;;;;;;;4974153;28;20432;-60
2022/11/17 06:30:28;;;;;;;51.03;26.38;;;;;;;;;;4956478;28;20043;-59
2022/11/17 06:32:55;;;;;;;59.92;31.73;;;;;;;;;;4956486;28;20444;-58
2022/11/17 06:35:22;;;;;;;36.28;19.45;;;256.70;2252.80;;;;;;4973090;28;20023;-58
2022/11/17 06:37:47;;;;;;;37.92;20.00;;;256.20;2252.80;;;;;;4974759;28;20037;-59
2022/11/17 06:40:13;;;;;;;44.50;22.38;;;256.10;2252.80;;;;;;4974434;28;20114;-59
2022/11/17 06:45:24;;;;;;;34.78;18.58;;;256.00;2252.80;;;;;;4974801;28;20557;-58
2022/11/17 06:47:52;;;;;;;32.83;17.80;;;231.30;2252.80;;;;;;4982039;28;20050;-58
2022/11/17 06:50:18;;;;;;;30.27;16.20;;;231.20;2252.80;;;;;;4977521;28;20102;-58
2022/11/17 06:52:43;;;;;;;32.38;16.48;;;231.30;2252.80;;;;;;4975523;28;20050;-60
2022/11/17 06:55:09;;;;;;;30.45;16.75;;;231.30;2252.80;;;;;;4978998;28;20027;-58
2022/11/17 06:57:35;;;;;;;33.72;16.83;;;256.00;2252.80;;;;;;4975346;28;20033;-57
2022/11/17 07:00:01;;;;;;;32.22;16.60;;;256.30;2252.80;;;;;;4992496;28;20388;-59
2022/11/17 07:02:26;;;;;;;41.38;23.63;;;256.40;2252.80;;;;;;4977912;28;20045;-59
2022/11/17 07:04:52;;;;;;;40.22;22.30;;;256.50;2252.80;;;;;;4984728;28;20077;-59
2022/11/17 07:07:18;;;;;;;35.97;19.48;;;256.60;2073.60;;;;;;4980663;28;20027;-56
2022/11/17 07:09:43;;;;;;;37.33;17.15;;;256.70;2252.80;;;;;;4973516;28;20029;-59
2022/11/17 07:12:09;;;;;;;39.58;19.17;;;256.90;2252.80;;;;;;4991559;28;20482;-56
2022/11/17 07:14:34;;;;;;;38.38;19.52;;;281.60;2278.40;;;;;;4992532;28;20548;-59
2022/11/17 07:17:00;;;;;;;29.75;16.88;;;282.00;2278.40;;;;;;4974777;28;20035;-58
2022/11/17 07:19:26;;;;;;;28.85;16.42;;;282.10;2278.40;;;;;;4972893;28;20035;-59
2022/11/17 07:21:51;;;;;;;28.60;16.13;;;282.20;2278.40;;;;;;4972327;28;20081;-58
2022/11/17 07:24:17;;;;;;;;;;;282.40;2278.40;;;;;;4991483;28;20022;-59
2022/11/17 07:26:42;;;;;;;;;;;307.70;2304.00;;;;;;4992763;28;19914;-59
2022/11/17 07:29:08;;;;;;;;;;;332.80;2329.60;;;;;;4986801;28;19917;-58
2022/11/17 07:31:34;;;;;;;;;;;333.40;2329.60;;;;;;4982292;28;19910;-57
2022/11/17 07:34:00;;;;;;;;;;;333.40;2329.60;;;;;;4983796;28;20275;-58
2022/11/17 07:36:25;;;;;;;;;;;332.90;2329.60;;;;;;4978534;28;19925;-60
2022/11/17 07:38:51;;;;;;;;;;;307.80;2304.00;;;;;;4993206;28;19910;-59
2022/11/17 07:41:16;;;;;;;;;;;308.00;2304.00;;;;;;4988765;28;19912;-58
2022/11/17 07:43:43;;;;;;;28.30;14.90;;;307.70;2304.00;;;;;;4985550;28;19914;-59
2022/11/17 07:46:12;;;;;;;;;;;308.00;2304.00;;;;;;4986707;28;20109;-59
2022/11/17 07:48:38;;;;;;;;;;;332.90;2329.60;;;;;;4973206;28;20000;-60
2022/11/17 07:51:04;;;;;;;;;;;333.40;2329.60;;;;;;4988112;28;19992;-60
2022/11/17 07:53:31;;;;;;;;;;;;;;;;;;4973322;28;20064;-58
2022/11/17 07:56:01;;;;;;;;;;;384.90;2329.60;;;;;;4972848;28;19953;-60
2022/11/17 07:58:27;;;;;;;;;;;;;;;;;;4986521;28;19910;-60
2022/11/17 08:00:52;;;;;;;;;;;435.90;2355.20;;;;;;4978260;28;19914;-60
2022/11/17 08:03:18;;;;;;;;;;;460.80;2380.80;;;;;;4976326;28;20024;-61
2022/11/17 08:05:43;;;;;;;;;;;461.50;2380.80;;;;;;4973622;28;20364;-58
2022/11/17 08:08:09;;;;;;;;;;;461.60;2380.80;;;;;;4973223;28;20368;-59
2022/11/17 08:10:35;;;;;;;;;;;512.00;2380.80;;;;;;4973136;28;19907;-57
2022/11/17 08:13:00;;;;;;;;;;;512.90;2355.20;;;;;;4972871;28;19957;-60
2022/11/17 08:15:27;;;;;;;;;;;537.90;2380.80;;;;;;4968797;28;19907;-60
2022/11/17 08:17:53;;;;;;;;;;;538.30;2252.80;;;;;;4953820;29;19906;-58
2022/11/17 08:20:18;;;;;;;;;;;538.50;2201.60;;;;;;4981113;28;19909;-60
2022/11/17 08:22:45;;;;;;;;;;;563.40;2150.40;;;;;;4972935;28;19941;-60
2022/11/17 08:25:10;;;;;;;;;;;563.30;2176.00;;;;;;4971658;28;19996;-60
2022/11/17 08:27:36;;;;;;;;;;;563.20;2150.40;;;;;;4977009;28;20332;-60
2022/11/17 08:30:02;;;;;;;17.15;12.40;;;537.90;2099.20;;;;;;4980125;28;19910;-57
2022/11/17 08:32:28;;;;;;;18.75;11.88;;;512.30;2176.00;;;;;;4974439;28;20074;-59
2022/11/17 08:34:54;;;;;;;23.73;16.35;;;512.10;2227.20;;;;;;4989408;28;20066;-59
2022/11/17 08:37:20;;;;;;;16.00;11.40;;;487.10;2355.20;;;;;;4995056;28;20035;-57
2022/11/17 08:39:46;;;;;;;19.63;13.38;;;486.50;2380.80;;;;;;4975613;28;20038;-59
2022/11/17 08:42:11;;;;;;;22.85;15.85;;;461.60;2380.80;;;;;;4974759;28;20106;-59
2022/11/17 08:44:37;;;;;;;18.08;13.27;;;461.70;2380.80;;;;;;4958539;28;20027;-58
2022/11/17 08:47:03;;;;;;;22.55;16.02;;;486.40;2380.80;;;;;;4984855;28;20432;-58
2022/11/17 08:49:28;;;;;;;20.50;13.60;;;487.20;2380.80;;;;;;4993741;28;20033;-58
2022/11/17 08:51:54;;;;;;;19.13;13.93;;;487.00;2380.80;;;;;;4994614;28;20498;-58
2022/11/17 08:54:20;;;;;;;27.25;15.43;;;486.90;2380.80;;;;;;4992835;28;20473;-57
2022/11/17 08:56:45;;;;;;;20.25;14.82;;;512.00;2380.80;;;;;;4993899;28;20030;-58
2022/11/17 08:59:12;;;;;;;;;;;537.70;2304.00;;;;;;4984079;28;20071;-58
2022/11/17 09:01:38;;;;;;;13.00;10.48;;;563.60;2099.20;;;;;;4981921;28;19906;-58
2022/11/17 09:04:04;;;;;;;12.27;9.38;;;589.40;1971.20;;;;;;4981884;28;20400;-59
2022/11/17 09:06:30;;;;;;;;;;;615.30;1740.80;;;;;;4965756;28;20058;-60
2022/11/17 09:08:56;;;;;;;14.50;11.10;;;615.30;1638.40;;;;;;4981921;28;19994;-60
2022/11/17 09:11:22;;;;;;;19.95;14.70;;;614.80;1689.60;;;;;;4984254;28;20018;-60
2022/11/17 09:13:47;;;;;;;;;;;614.40;1766.40;;;;;;4983069;28;20039;-60
2022/11/17 09:16:13;;;;;;;;;;;563.30;1817.60;;;;;;4981824;28;19913;-60
2022/11/17 09:18:40;;;;;;;18.95;13.00;;;512.90;1920.00;;;;;;4983087;28;19906;-61
2022/11/17 09:21:10;;;;;;;14.40;10.90;;;512.10;2048.00;;;;;;4981559;28;20034;-58
2022/11/17 09:23:36;;;;;;;26.33;16.02;;;486.90;2176.00;;;;;;4982154;28;19918;-59
2022/11/17 09:26:10;;;;;;;32.38;19.33;;;461.70;2304.00;;;;;;4978679;28;20030;-59
2022/11/17 09:28:36;;;;;;;27.38;20.95;;;461.40;2380.80;;;;;;4972711;28;20472;-60
2022/11/17 09:31:07;;;;;;;13.85;10.55;;;461.40;2380.80;;;;;;4977089;28;20042;-60
2022/11/17 09:33:32;;;;;;;14.00;10.45;;;487.00;2304.00;;;;;;4979186;28;20058;-58
2022/11/17 09:35:58;;;;;;;14.80;11.68;;;537.90;2124.80;;;;;;4981676;28;20027;-60
2022/11/17 09:38:24;;;;;;;42.00;27.63;;;538.40;2048.00;;;;;;4989608;28;20113;-59
2022/11/17 09:40:51;;;;;;;15.55;11.65;;;589.10;1894.40;;;;;;4991794;28;20037;-58
2022/11/17 09:43:29;;;;;;;12.38;9.88;;;614.90;1740.80;;;;;;4993122;28;20034;-61
2022/11/17 09:46:19;;;;;;;16.65;13.20;;;640.80;1587.20;;;;;;4993213;28;20038;-60
2022/11/17 09:49:03;;;;;;;15.52;11.88;;;640.20;1510.40;;;;;;4993148;28;19910;-60
2022/11/17 09:51:33;;;;;;;20.80;15.50;;;615.30;1536.00;;;;;;4992795;28;20484;-60
2022/11/17 09:54:24;;;;;;;11.95;9.68;;;614.70;1587.20;;;;;;4986868;28;20069;-60
2022/11/17 09:56:52;;;;;;;15.50;11.77;;;615.30;1587.20;;;;;;4992477;28;20034;-61
2022/11/17 09:59:19;;;;;;;13.98;11.45;;;615.00;1587.20;;;;;;4992449;28;20484;-60
2022/11/17 10:01:45;;;;;;;14.95;12.20;;;615.10;1536.00;;;;;;4992242;28;20045;-60
2022/11/17 10:04:12;;;;;;;17.02;12.65;;;640.40;1484.80;;;;;;4988766;28;20038;-61
2022/11/17 10:06:42;;;;;;;11.65;9.38;;;665.60;1459.20;;;;;;4992801;28;20034;-60
2022/11/17 10:09:16;;;;;;;10.38;8.35;;;665.70;1459.20;;;;;;4982761;28;20512;-59
2022/11/17 10:11:44;;;;;;;19.02;13.75;;;666.10;1408.00;;;;;;4977984;28;20034;-55
2022/11/17 10:14:16;;;;;;;12.07;10.57;;;691.80;1356.80;;;;;;4972906;28;20496;-57
2022/11/17 10:16:51;;;;;;;18.58;14.82;;;717.30;1280.00;;;;;;4977067;28;20045;-59
2022/11/17 10:19:28;;;;;;;10.90;7.90;;;742.90;1228.80;;;;;;4973321;28;20051;-59
2022/11/17 10:22:01;;;;;;;15.80;13.35;;;743.30;1177.60;;;;;;4972934;28;20478;-59
2022/11/17 10:24:43;;;;;;;9.77;8.45;;;768.50;1126.40;;;;;;4973137;28;20043;-56
2022/11/17 10:27:27;;;;;;;8.38;7.10;;;768.90;1100.80;;;;;;4972852;28;20503;-58
2022/11/17 10:30:18;;;;;;;9.13;7.32;;;819.20;1049.60;;;;;;4992581;28;20030;-59
2022/11/17 10:32:58;;;;;;;11.02;9.77;;;819.50;998.40;;;;;;4977753;28;20507;-58
2022/11/17 10:35:33;;;;;;;14.68;11.52;;;768.50;1024.00;;;;;;4990152;28;20481;-58
2022/11/17 10:37:59;;;;;;;11.10;8.35;;;742.50;1152.00;;;;;;4992008;28;20097;-58
2022/11/17 10:40:48;;;;;;;28.63;20.70;;;768.20;1075.20;;;;;;4982860;28;20034;-58
2022/11/17 10:43:15;;;;;;;15.57;10.98;;;819.20;1024.00;;;;;;4972610;28;20126;-57
2022/11/17 10:45:51;;;;;;;52.92;29.50;;;845.10;972.80;;;;;;4975237;28;20500;-59
2022/11/17 10:48:31;;;;;;;18.88;11.60;;;870.40;947.20;;;;;;4991543;28;20395;-60
2022/11/17 10:51:03;;;;;;;8.75;7.53;;;871.00;896.00;;;;;;4992076;28;20023;-58
2022/11/17 10:53:37;;;;;;;7.07;6.35;;;896.40;870.40;;;;;;4991472;28;20065;-59
2022/11/17 10:56:21;;;;;;;6.57;5.88;;;871.20;870.40;;;;;;4991990;28;20026;-59
2022/11/17 10:59:21;;;;;;;5.72;4.82;;;896.20;844.80;;;;;;4991093;28;20038;-59
2022/11/17 11:01:50;;;;;;;6.32;5.03;;;921.80;844.80;;;;;;4912125;29;20534;-59
2022/11/17 11:04:29;;;;;;;26.55;18.23;;;896.80;793.60;;;;;;4908786;29;20059;-59
2022/11/17 11:07:19;;;;;;;15.82;13.55;;;845.70;870.40;;;;;;4912125;29;20049;-59
2022/11/17 11:09:51;;;;;;;11.85;10.52;;;820.10;870.40;;;;;;4912265;29;20028;-58
2022/11/17 11:12:31;;;;;;;14.18;11.73;;;794.30;921.60;;;;;;4910468;29;20048;-59
2022/11/17 11:14:59;;;;;;;16.17;13.27;;;768.70;972.80;;;;;;4884045;29;20080;-59
2022/11/17 11:17:27;;;;;;;14.77;11.75;;;743.00;1024.00;;;;;;4892152;29;20104;-61
2022/11/17 11:19:53;;;;;;;11.57;8.45;;;716.90;1100.80;;;;;;4887500;29;20044;-60
2022/11/17 11:22:48;;;;;;;9.15;7.20;;;666.50;1126.40;;;;;;4874773;29;20440;-57
2022/11/17 11:25:50;;;;;;;18.08;13.85;;;640.80;1152.00;;;;;;4868780;29;20049;-60
2022/11/17 11:28:18;;;;;;;12.90;10.90;;;640.20;1203.20;;;;;;4874441;29;20045;-60
2022/11/17 11:31:18;;;;;;;22.15;15.98;;;640.90;1203.20;;;;;;4874279;29;20037;-60
2022/11/17 11:33:59;;;;;;;12.05;8.40;;;640.70;1203.20;;;;;;4864766;29;20095;-60
2022/11/17 11:36:46;;;;;;;8.57;6.97;;;666.40;1177.60;;;;;;4870307;29;20037;-59
2022/11/17 11:39:55;;;;;;;7.57;6.72;;;691.90;1100.80;;;;;;4874506;29;20044;-60
2022/11/17 11:42:41;;;;;;;;;;;691.70;1126.40;;;;;;4856198;29;20044;-59
2022/11/17 11:45:28;;;;;;;;;;;665.60;1203.20;;;;;;4856327;29;19954;-60
2022/11/17 11:48:02;;;;;;;;;;;614.90;1305.60;;;;;;4856921;29;19911;-60
2022/11/17 11:50:34;;;;;;;5.88;4.32;;;615.00;1305.60;;;;;;4855996;29;20002;-59
2022/11/17 11:53:12;;;;;;;7.18;5.85;;;614.60;1331.20;;;;;;4856241;29;20555;-58
2022/11/17 11:55:40;;;;;;;18.00;11.93;;;589.00;1408.00;;;;;;4856247;29;20045;-55
2022/11/17 11:58:15;;;;;;;10.35;6.72;;;589.30;1433.60;;;;;;4856376;29;20584;-59
2022/11/17 12:00:43;;;;;;;16.10;12.80;;;564.10;1433.60;;;;;;4855424;29;20038;-56
2022/11/17 12:03:27;;;;;;;23.83;14.98;;;564.00;1433.60;;;;;;4874506;29;20036;-56
2022/11/17 12:09:18;;;;;;;10.27;9.07;;;588.90;1459.20;;;;;;4878033;29;20039;-55
2022/11/17 12:12:00;;;;;;;18.95;17.05;;;640.40;1305.60;;;;;;4877302;29;20055;-54
2022/11/17 12:14:30;;;;;;;7.60;6.43;;;691.50;1203.20;;;;;;4876832;29;20041;-53
2022/11/17 12:17:06;;;;;;;9.88;8.88;;;717.30;1152.00;;;;;;4883036;28;20400;-56
2022/11/17 12:19:54;;;;;;;13.20;9.30;;;742.90;1100.80;;;;;;4975089;28;20042;-55
2022/11/17 12:22:37;;;;;;;8.95;7.97;;;743.00;1075.20;;;;;;4991923;28;20058;-54
2022/11/17 12:25:04;;;;;;;;;;;742.50;1100.80;;;;;;4994805;28;20512;-56
2022/11/17 12:27:33;;;;;;;4.38;3.90;;;666.40;1177.60;;;;;;4994371;28;19913;-53
2022/11/17 12:30:00;;;;;;;6.03;5.03;;;691.20;1177.60;;;;;;4993831;28;20038;-55
2022/11/17 12:32:43;;;;;;;6.43;5.25;;;691.80;1126.40;;;;;;4994819;28;20045;-53
2022/11/17 12:35:32;;;;;;;10.48;9.40;;;716.90;1100.80;;;;;;4980301;28;20041;-54
2022/11/17 12:38:16;;;;;;;13.00;11.65;;;692.00;1126.40;;;;;;4987561;28;20379;-53
2022/11/17 12:40:46;;;;;;;8.68;7.88;;;717.00;1126.40;;;;;;4986883;28;20047;-55
2022/11/17 12:43:14;;;;;;;9.40;8.60;;;717.60;1100.80;;;;;;4994410;28;20041;-54
2022/11/17 12:46:12;;;;;;;5.22;4.53;;;742.70;1100.80;;;;;;4991829;28;20037;-52
2022/11/17 12:48:45;;;;;;;9.35;8.50;;;768.30;1049.60;;;;;;4896050;29;20043;-54
2022/11/17 12:51:16;;;;;;;5.10;4.60;;;768.70;1024.00;;;;;;4895864;29;20127;-55
2022/11/17 12:54:20;;;;;;;9.10;7.97;;;794.00;998.40;;;;;;4905734;29;20096;-54
2022/11/17 12:56:46;;;;;;;5.20;4.70;;;794.10;998.40;;;;;;4876846;29;20170;-55
2022/11/17 12:59:32;;;;;;;6.50;5.68;;;793.60;998.40;;;;;;4877260;29;20511;-54
2022/11/17 13:02:22;;;;;;;20.60;18.38;;;793.70;998.40;;;;;;4886617;29;20184;-53
2022/11/17 13:05:20;;;;;;;5.60;5.00;;;768.40;1024.00;;;;;;4881942;29;20517;-55
2022/11/17 13:07:46;;;;;;;6.43;4.40;;;743.20;1049.60;;;;;;4874654;29;20073;-55
2022/11/17 13:10:44;;;;;;;8.13;6.95;;;743.00;1075.20;;;;;;4876039;29;20073;-55
2022/11/17 13:13:20;;;;;;;6.88;6.18;;;742.50;1100.80;;;;;;4839203;29;20046;-53
2022/11/17 13:15:52;;;;;;;16.15;13.45;;;743.00;1075.20;;;;;;4837586;29;20061;-55
2022/11/17 13:18:38;;;;;;;8.90;7.15;;;742.50;1100.80;;;;;;4839823;29;20132;-55
2022/11/17 13:21:24;;;;;;;11.00;8.15;;;717.70;1075.20;;;;;;4838989;29;20086;-54
2022/11/17 13:23:50;;;;;;;10.15;8.63;;;743.00;1075.20;;;;;;4837074;29;20054;-53